Henderson, New York
Current Conditions -  °F | °C
As of 10:56 PM on Saturday 25 Oct 2014 (Local Time) from KART Reporting Station
Overcast Overcast  
Wind Chill: 56°   Ceiling: 6000
Heat Index: 56°   Visibility: 10mi
Dew Point: 40°   Wind: 13mph
Humidity: 55%   Direction: 280°W
Pressure: 29.53"   Gusts: NA
Location:  43.85°N, 76.18°W
Report Text: KART 260256Z AUTO 28011KT 10SM BKN060 BKN080 OVC095 13/04 A2953 RMK AO2 SLP000 T01330044 56007
Loading
Personal Weather Stations






























Interactive Weather Map New forecast layout! Learn more

10-Day Weather Forecast

Advertisements
Track Severe Weather on mobile